sensor_id;sensor_type;location;lat;lon;timestamp;P1;durP1;ratioP1;P2;durP2;ratioP2
5077;SDS011;2557;51.390;7.494;2023-07-30T00:00:26;3.77;;;3.47;;
5077;SDS011;2557;51.390;7.494;2023-07-30T00:02:52;4.87;;;3.50;;
5077;SDS011;2557;51.390;7.494;2023-07-30T00:05:18;4.30;;;3.50;;
5077;SDS011;2557;51.390;7.494;2023-07-30T00:07:44;5.73;;;3.53;;
5077;SDS011;2557;51.390;7.494;2023-07-30T00:10:10;6.00;;;3.77;;
5077;SDS011;2557;51.390;7.494;2023-07-30T00:12:36;5.30;;;3.90;;
5077;SDS011;2557;51.390;7.494;2023-07-30T00:15:02;5.67;;;3.93;;
5077;SDS011;2557;51.390;7.494;2023-07-30T00:17:28;4.20;;;3.80;;
5077;SDS011;2557;51.390;7.494;2023-07-30T00:19:54;6.73;;;4.20;;
5077;SDS011;2557;51.390;7.494;2023-07-30T00:22:20;5.73;;;4.57;;
5077;SDS011;2557;51.390;7.494;2023-07-30T00:24:46;8.80;;;4.03;;
5077;SDS011;2557;51.390;7.494;2023-07-30T00:27:12;11.20;;;4.30;;
5077;SDS011;2557;51.390;7.494;2023-07-30T00:29:38;6.93;;;3.47;;
5077;SDS011;2557;51.390;7.494;2023-07-30T00:32:04;3.63;;;3.33;;
5077;SDS011;2557;51.390;7.494;2023-07-30T00:34:30;6.03;;;3.50;;
5077;SDS011;2557;51.390;7.494;2023-07-30T00:36:56;9.03;;;4.20;;
5077;SDS011;2557;51.390;7.494;2023-07-30T00:39:22;8.13;;;3.97;;
5077;SDS011;2557;51.390;7.494;2023-07-30T00:41:48;9.77;;;4.10;;
5077;SDS011;2557;51.390;7.494;2023-07-30T00:44:14;3.80;;;3.50;;
5077;SDS011;2557;51.390;7.494;2023-07-30T00:46:40;8.47;;;4.43;;
5077;SDS011;2557;51.390;7.494;2023-07-30T00:49:06;4.23;;;2.97;;
5077;SDS011;2557;51.390;7.494;2023-07-30T00:51:33;6.30;;;3.93;;
5077;SDS011;2557;51.390;7.494;2023-07-30T00:53:59;5.80;;;3.63;;
5077;SDS011;2557;51.390;7.494;2023-07-30T00:56:26;4.37;;;3.93;;
5077;SDS011;2557;51.390;7.494;2023-07-30T00:58:52;13.50;;;4.83;;
5077;SDS011;2557;51.390;7.494;2023-07-30T01:01:18;5.67;;;3.60;;
5077;SDS011;2557;51.390;7.494;2023-07-30T01:03:44;5.70;;;4.53;;
5077;SDS011;2557;51.390;7.494;2023-07-30T01:06:10;6.27;;;3.80;;
5077;SDS011;2557;51.390;7.494;2023-07-30T01:08:36;7.87;;;4.23;;
5077;SDS011;2557;51.390;7.494;2023-07-30T01:11:03;7.97;;;4.23;;
5077;SDS011;2557;51.390;7.494;2023-07-30T01:13:29;5.80;;;4.33;;
5077;SDS011;2557;51.390;7.494;2023-07-30T01:18:59;9.87;;;5.00;;
5077;SDS011;2557;51.390;7.494;2023-07-30T01:21:29;15.90;;;4.90;;
5077;SDS011;2557;51.390;7.494;2023-07-30T01:23:55;5.70;;;4.10;;
5077;SDS011;2557;51.390;7.494;2023-07-30T01:26:24;7.83;;;4.20;;
5077;SDS011;2557;51.390;7.494;2023-07-30T01:28:54;7.47;;;4.13;;
5077;SDS011;2557;51.390;7.494;2023-07-30T01:31:20;5.17;;;4.57;;
5077;SDS011;2557;51.390;7.494;2023-07-30T01:33:49;4.40;;;4.00;;
5077;SDS011;2557;51.390;7.494;2023-07-30T01:36:18;12.63;;;4.50;;
5077;SDS011;2557;51.390;7.494;2023-07-30T01:38:45;9.30;;;4.67;;
5077;SDS011;2557;51.390;7.494;2023-07-30T01:41:12;8.43;;;5.13;;
5077;SDS011;2557;51.390;7.494;2023-07-30T01:43:38;11.37;;;4.43;;
5077;SDS011;2557;51.390;7.494;2023-07-30T01:46:04;14.80;;;5.13;;
5077;SDS011;2557;51.390;7.494;2023-07-30T01:48:30;4.83;;;4.33;;
5077;SDS011;2557;51.390;7.494;2023-07-30T01:50:56;15.10;;;4.63;;
5077;SDS011;2557;51.390;7.494;2023-07-30T01:53:22;9.37;;;4.30;;
5077;SDS011;2557;51.390;7.494;2023-07-30T01:55:48;8.07;;;4.33;;
5077;SDS011;2557;51.390;7.494;2023-07-30T01:58:14;9.70;;;4.83;;
5077;SDS011;2557;51.390;7.494;2023-07-30T02:00:40;7.90;;;4.40;;
5077;SDS011;2557;51.390;7.494;2023-07-30T02:03:07;19.03;;;4.90;;
5077;SDS011;2557;51.390;7.494;2023-07-30T02:05:33;6.97;;;5.07;;
5077;SDS011;2557;51.390;7.494;2023-07-30T02:07:59;8.13;;;4.70;;
5077;SDS011;2557;51.390;7.494;2023-07-30T02:10:25;5.90;;;4.40;;
5077;SDS011;2557;51.390;7.494;2023-07-30T02:12:51;8.53;;;5.73;;
5077;SDS011;2557;51.390;7.494;2023-07-30T02:15:17;6.43;;;4.00;;
5077;SDS011;2557;51.390;7.494;2023-07-30T02:17:43;7.77;;;4.90;;
5077;SDS011;2557;51.390;7.494;2023-07-30T02:20:09;8.47;;;4.50;;
5077;SDS011;2557;51.390;7.494;2023-07-30T02:22:35;8.77;;;4.10;;
5077;SDS011;2557;51.390;7.494;2023-07-30T02:25:01;6.50;;;4.30;;
5077;SDS011;2557;51.390;7.494;2023-07-30T02:27:27;8.93;;;4.87;;
5077;SDS011;2557;51.390;7.494;2023-07-30T02:29:53;8.63;;;5.00;;
5077;SDS011;2557;51.390;7.494;2023-07-30T02:32:19;13.50;;;4.83;;
5077;SDS011;2557;51.390;7.494;2023-07-30T02:34:45;9.97;;;5.10;;
5077;SDS011;2557;51.390;7.494;2023-07-30T02:37:11;9.13;;;3.80;;
5077;SDS011;2557;51.390;7.494;2023-07-30T02:39:38;5.13;;;4.17;;
5077;SDS011;2557;51.390;7.494;2023-07-30T02:42:04;6.83;;;4.17;;
5077;SDS011;2557;51.390;7.494;2023-07-30T02:44:30;7.13;;;4.23;;
5077;SDS011;2557;51.390;7.494;2023-07-30T02:46:56;8.60;;;4.17;;
5077;SDS011;2557;51.390;7.494;2023-07-30T02:49:22;7.97;;;4.70;;
5077;SDS011;2557;51.390;7.494;2023-07-30T02:51:48;8.43;;;4.50;;
5077;SDS011;2557;51.390;7.494;2023-07-30T02:54:14;10.03;;;5.13;;
5077;SDS011;2557;51.390;7.494;2023-07-30T02:56:45;5.70;;;4.30;;
5077;SDS011;2557;51.390;7.494;2023-07-30T02:59:12;6.20;;;4.73;;
5077;SDS011;2557;51.390;7.494;2023-07-30T03:01:38;7.00;;;4.50;;
5077;SDS011;2557;51.390;7.494;2023-07-30T03:04:04;12.13;;;6.27;;
5077;SDS011;2557;51.390;7.494;2023-07-30T03:06:30;5.83;;;3.87;;
5077;SDS011;2557;51.390;7.494;2023-07-30T03:08:56;6.43;;;4.30;;
5077;SDS011;2557;51.390;7.494;2023-07-30T03:11:22;11.60;;;4.30;;
5077;SDS011;2557;51.390;7.494;2023-07-30T03:13:48;6.50;;;4.03;;
5077;SDS011;2557;51.390;7.494;2023-07-30T03:16:14;4.80;;;4.07;;
5077;SDS011;2557;51.390;7.494;2023-07-30T03:18:40;11.87;;;4.37;;
5077;SDS011;2557;51.390;7.494;2023-07-30T03:21:06;5.60;;;4.10;;
5077;SDS011;2557;51.390;7.494;2023-07-30T03:23:32;10.17;;;5.00;;
5077;SDS011;2557;51.390;7.494;2023-07-30T03:25:59;9.57;;;4.53;;
5077;SDS011;2557;51.390;7.494;2023-07-30T03:28:25;5.90;;;4.07;;
5077;SDS011;2557;51.390;7.494;2023-07-30T03:30:51;6.07;;;4.30;;
5077;SDS011;2557;51.390;7.494;2023-07-30T03:33:17;12.53;;;4.87;;
5077;SDS011;2557;51.390;7.494;2023-07-30T03:35:43;6.80;;;5.77;;
5077;SDS011;2557;51.390;7.494;2023-07-30T03:38:10;6.60;;;4.67;;
5077;SDS011;2557;51.390;7.494;2023-07-30T03:40:36;7.70;;;4.97;;
5077;SDS011;2557;51.390;7.494;2023-07-30T03:43:02;6.80;;;4.67;;
5077;SDS011;2557;51.390;7.494;2023-07-30T03:45:28;6.07;;;4.70;;
5077;SDS011;2557;51.390;7.494;2023-07-30T03:47:54;10.33;;;4.40;;
5077;SDS011;2557;51.390;7.494;2023-07-30T03:50:20;9.30;;;4.80;;
5077;SDS011;2557;51.390;7.494;2023-07-30T03:52:45;6.97;;;4.70;;
5077;SDS011;2557;51.390;7.494;2023-07-30T03:55:12;7.30;;;4.60;;
5077;SDS011;2557;51.390;7.494;2023-07-30T03:57:38;7.20;;;5.17;;
5077;SDS011;2557;51.390;7.494;2023-07-30T04:00:04;9.33;;;4.53;;
5077;SDS011;2557;51.390;7.494;2023-07-30T04:02:30;10.90;;;4.00;;
5077;SDS011;2557;51.390;7.494;2023-07-30T04:04:56;10.47;;;4.37;;
5077;SDS011;2557;51.390;7.494;2023-07-30T04:07:22;7.23;;;3.67;;
5077;SDS011;2557;51.390;7.494;2023-07-30T04:09:48;6.67;;;4.57;;
5077;SDS011;2557;51.390;7.494;2023-07-30T04:12:14;11.30;;;4.40;;
5077;SDS011;2557;51.390;7.494;2023-07-30T04:14:40;11.00;;;3.53;;
5077;SDS011;2557;51.390;7.494;2023-07-30T04:17:06;6.53;;;4.20;;
5077;SDS011;2557;51.390;7.494;2023-07-30T04:19:32;6.07;;;4.27;;
5077;SDS011;2557;51.390;7.494;2023-07-30T04:21:58;6.47;;;4.10;;
5077;SDS011;2557;51.390;7.494;2023-07-30T04:24:24;8.43;;;4.73;;
5077;SDS011;2557;51.390;7.494;2023-07-30T04:26:51;10.30;;;4.43;;
5077;SDS011;2557;51.390;7.494;2023-07-30T04:29:17;9.03;;;5.00;;
5077;SDS011;2557;51.390;7.494;2023-07-30T04:31:43;7.40;;;4.20;;
5077;SDS011;2557;51.390;7.494;2023-07-30T04:34:09;8.03;;;5.00;;
5077;SDS011;2557;51.390;7.494;2023-07-30T04:36:35;7.77;;;5.07;;
5077;SDS011;2557;51.390;7.494;2023-07-30T04:39:01;12.90;;;5.80;;
5077;SDS011;2557;51.390;7.494;2023-07-30T04:41:27;10.13;;;4.43;;
5077;SDS011;2557;51.390;7.494;2023-07-30T04:43:53;6.40;;;4.50;;
5077;SDS011;2557;51.390;7.494;2023-07-30T04:46:19;10.30;;;4.90;;
5077;SDS011;2557;51.390;7.494;2023-07-30T04:48:45;8.63;;;4.57;;
5077;SDS011;2557;51.390;7.494;2023-07-30T04:51:11;8.40;;;4.60;;
5077;SDS011;2557;51.390;7.494;2023-07-30T04:53:37;7.27;;;3.97;;
5077;SDS011;2557;51.390;7.494;2023-07-30T04:56:03;9.33;;;4.80;;
5077;SDS011;2557;51.390;7.494;2023-07-30T04:58:29;12.30;;;5.00;;
5077;SDS011;2557;51.390;7.494;2023-07-30T05:00:55;7.83;;;4.80;;
5077;SDS011;2557;51.390;7.494;2023-07-30T05:03:21;8.63;;;4.93;;
5077;SDS011;2557;51.390;7.494;2023-07-30T05:05:47;7.37;;;4.73;;
5077;SDS011;2557;51.390;7.494;2023-07-30T05:08:13;10.70;;;4.50;;
5077;SDS011;2557;51.390;7.494;2023-07-30T05:10:39;5.00;;;3.77;;
5077;SDS011;2557;51.390;7.494;2023-07-30T05:13:05;4.93;;;4.30;;
5077;SDS011;2557;51.390;7.494;2023-07-30T05:15:31;12.97;;;4.60;;
5077;SDS011;2557;51.390;7.494;2023-07-30T05:17:57;12.13;;;4.33;;
5077;SDS011;2557;51.390;7.494;2023-07-30T05:20:23;6.50;;;4.43;;
5077;SDS011;2557;51.390;7.494;2023-07-30T05:22:49;7.67;;;4.00;;
5077;SDS011;2557;51.390;7.494;2023-07-30T05:25:15;11.63;;;4.47;;
5077;SDS011;2557;51.390;7.494;2023-07-30T05:27:41;9.10;;;4.13;;
5077;SDS011;2557;51.390;7.494;2023-07-30T05:30:07;10.60;;;4.40;;
5077;SDS011;2557;51.390;7.494;2023-07-30T05:32:33;10.57;;;3.97;;
5077;SDS011;2557;51.390;7.494;2023-07-30T05:34:59;8.27;;;4.20;;
5077;SDS011;2557;51.390;7.494;2023-07-30T05:37:25;4.93;;;4.43;;
5077;SDS011;2557;51.390;7.494;2023-07-30T05:39:51;13.03;;;4.30;;
5077;SDS011;2557;51.390;7.494;2023-07-30T05:42:17;11.40;;;4.13;;
5077;SDS011;2557;51.390;7.494;2023-07-30T05:44:43;9.17;;;4.70;;
5077;SDS011;2557;51.390;7.494;2023-07-30T05:47:09;5.93;;;2.90;;
5077;SDS011;2557;51.390;7.494;2023-07-30T05:49:35;6.73;;;3.57;;
5077;SDS011;2557;51.390;7.494;2023-07-30T05:52:01;7.90;;;3.70;;
5077;SDS011;2557;51.390;7.494;2023-07-30T05:54:27;6.93;;;3.90;;
5077;SDS011;2557;51.390;7.494;2023-07-30T05:56:53;12.30;;;3.40;;
5077;SDS011;2557;51.390;7.494;2023-07-30T05:59:19;7.53;;;3.73;;
5077;SDS011;2557;51.390;7.494;2023-07-30T06:01:45;7.60;;;3.83;;
5077;SDS011;2557;51.390;7.494;2023-07-30T06:04:12;6.60;;;3.40;;
5077;SDS011;2557;51.390;7.494;2023-07-30T06:06:38;4.90;;;3.40;;
5077;SDS011;2557;51.390;7.494;2023-07-30T06:09:04;9.73;;;3.80;;
5077;SDS011;2557;51.390;7.494;2023-07-30T06:11:30;6.23;;;3.97;;
5077;SDS011;2557;51.390;7.494;2023-07-30T06:13:56;9.47;;;3.27;;
5077;SDS011;2557;51.390;7.494;2023-07-30T06:16:22;6.93;;;3.27;;
5077;SDS011;2557;51.390;7.494;2023-07-30T06:18:48;6.33;;;3.00;;
5077;SDS011;2557;51.390;7.494;2023-07-30T06:21:14;6.47;;;3.37;;
5077;SDS011;2557;51.390;7.494;2023-07-30T06:23:40;11.73;;;3.60;;
5077;SDS011;2557;51.390;7.494;2023-07-30T06:26:06;10.50;;;4.00;;
5077;SDS011;2557;51.390;7.494;2023-07-30T06:28:33;5.23;;;3.43;;
5077;SDS011;2557;51.390;7.494;2023-07-30T06:31:00;8.20;;;3.90;;
5077;SDS011;2557;51.390;7.494;2023-07-30T06:33:26;8.03;;;3.57;;
5077;SDS011;2557;51.390;7.494;2023-07-30T06:35:52;11.30;;;3.03;;
5077;SDS011;2557;51.390;7.494;2023-07-30T06:38:18;4.67;;;3.40;;
5077;SDS011;2557;51.390;7.494;2023-07-30T06:40:44;5.17;;;3.03;;
5077;SDS011;2557;51.390;7.494;2023-07-30T06:43:10;4.97;;;3.30;;
5077;SDS011;2557;51.390;7.494;2023-07-30T06:45:36;11.03;;;3.87;;
5077;SDS011;2557;51.390;7.494;2023-07-30T06:48:02;11.53;;;3.83;;
5077;SDS011;2557;51.390;7.494;2023-07-30T06:50:28;7.50;;;3.23;;
5077;SDS011;2557;51.390;7.494;2023-07-30T06:52:54;6.90;;;3.10;;
5077;SDS011;2557;51.390;7.494;2023-07-30T06:55:20;10.77;;;3.40;;
5077;SDS011;2557;51.390;7.494;2023-07-30T06:57:46;6.83;;;3.80;;
5077;SDS011;2557;51.390;7.494;2023-07-30T07:00:12;5.97;;;3.00;;
5077;SDS011;2557;51.390;7.494;2023-07-30T07:02:38;11.87;;;3.83;;
5077;SDS011;2557;51.390;7.494;2023-07-30T07:05:04;9.93;;;3.40;;
5077;SDS011;2557;51.390;7.494;2023-07-30T07:07:30;12.07;;;4.20;;
5077;SDS011;2557;51.390;7.494;2023-07-30T07:09:56;9.90;;;3.43;;
5077;SDS011;2557;51.390;7.494;2023-07-30T07:12:22;8.10;;;3.53;;
5077;SDS011;2557;51.390;7.494;2023-07-30T07:14:48;10.77;;;4.37;;
5077;SDS011;2557;51.390;7.494;2023-07-30T07:17:14;8.70;;;4.00;;
5077;SDS011;2557;51.390;7.494;2023-07-30T07:19:40;5.83;;;3.10;;
5077;SDS011;2557;51.390;7.494;2023-07-30T07:22:06;11.23;;;4.53;;
5077;SDS011;2557;51.390;7.494;2023-07-30T07:24:32;5.70;;;3.77;;
5077;SDS011;2557;51.390;7.494;2023-07-30T07:26:58;8.27;;;3.80;;
5077;SDS011;2557;51.390;7.494;2023-07-30T07:29:24;7.43;;;3.70;;
5077;SDS011;2557;51.390;7.494;2023-07-30T07:31:50;9.83;;;5.37;;
5077;SDS011;2557;51.390;7.494;2023-07-30T07:34:16;8.47;;;4.27;;
5077;SDS011;2557;51.390;7.494;2023-07-30T07:36:42;6.63;;;3.80;;
5077;SDS011;2557;51.390;7.494;2023-07-30T07:39:08;7.23;;;3.97;;
5077;SDS011;2557;51.390;7.494;2023-07-30T07:41:34;10.03;;;4.53;;
5077;SDS011;2557;51.390;7.494;2023-07-30T07:44:00;11.67;;;4.40;;
5077;SDS011;2557;51.390;7.494;2023-07-30T07:46:26;9.57;;;4.03;;
5077;SDS011;2557;51.390;7.494;2023-07-30T07:48:52;13.97;;;5.40;;
5077;SDS011;2557;51.390;7.494;2023-07-30T07:51:18;10.40;;;4.93;;
5077;SDS011;2557;51.390;7.494;2023-07-30T07:53:44;12.13;;;4.40;;
5077;SDS011;2557;51.390;7.494;2023-07-30T07:56:11;12.40;;;4.93;;
5077;SDS011;2557;51.390;7.494;2023-07-30T07:58:37;14.17;;;4.67;;
5077;SDS011;2557;51.390;7.494;2023-07-30T08:01:03;10.17;;;4.17;;
5077;SDS011;2557;51.390;7.494;2023-07-30T08:03:29;15.67;;;5.43;;
5077;SDS011;2557;51.390;7.494;2023-07-30T08:05:55;10.03;;;4.20;;
5077;SDS011;2557;51.390;7.494;2023-07-30T08:08:23;12.47;;;4.90;;
5077;SDS011;2557;51.390;7.494;2023-07-30T08:10:49;17.47;;;5.13;;
5077;SDS011;2557;51.390;7.494;2023-07-30T08:13:15;7.93;;;4.63;;
5077;SDS011;2557;51.390;7.494;2023-07-30T08:15:42;13.93;;;4.43;;
5077;SDS011;2557;51.390;7.494;2023-07-30T08:18:08;6.97;;;5.23;;
5077;SDS011;2557;51.390;7.494;2023-07-30T08:20:34;8.47;;;4.80;;
5077;SDS011;2557;51.390;7.494;2023-07-30T08:22:59;9.10;;;4.37;;
5077;SDS011;2557;51.390;7.494;2023-07-30T08:25:25;11.93;;;4.30;;
5077;SDS011;2557;51.390;7.494;2023-07-30T08:27:51;9.53;;;4.23;;
5077;SDS011;2557;51.390;7.494;2023-07-30T08:30:17;10.00;;;4.63;;
5077;SDS011;2557;51.390;7.494;2023-07-30T08:32:43;13.20;;;4.50;;
5077;SDS011;2557;51.390;7.494;2023-07-30T08:35:10;15.90;;;4.30;;
5077;SDS011;2557;51.390;7.494;2023-07-30T08:37:36;9.10;;;4.30;;
5077;SDS011;2557;51.390;7.494;2023-07-30T08:40:02;20.80;;;4.90;;
5077;SDS011;2557;51.390;7.494;2023-07-30T08:42:28;13.10;;;4.23;;
5077;SDS011;2557;51.390;7.494;2023-07-30T08:44:54;12.50;;;4.80;;
5077;SDS011;2557;51.390;7.494;2023-07-30T08:47:21;8.40;;;3.80;;
5077;SDS011;2557;51.390;7.494;2023-07-30T08:49:47;13.80;;;5.17;;
5077;SDS011;2557;51.390;7.494;2023-07-30T08:52:13;10.77;;;3.90;;
5077;SDS011;2557;51.390;7.494;2023-07-30T08:54:39;9.50;;;3.97;;
5077;SDS011;2557;51.390;7.494;2023-07-30T08:57:06;10.80;;;4.67;;
5077;SDS011;2557;51.390;7.494;2023-07-30T09:02:18;9.70;;;3.13;;
5077;SDS011;2557;51.390;7.494;2023-07-30T09:04:47;8.03;;;4.20;;
5077;SDS011;2557;51.390;7.494;2023-07-30T09:07:15;17.80;;;4.67;;
5077;SDS011;2557;51.390;7.494;2023-07-30T09:09:41;6.03;;;3.03;;
5077;SDS011;2557;51.390;7.494;2023-07-30T09:12:14;7.57;;;3.63;;
5077;SDS011;2557;51.390;7.494;2023-07-30T09:14:41;9.47;;;3.47;;
5077;SDS011;2557;51.390;7.494;2023-07-30T09:17:15;5.60;;;3.67;;
5077;SDS011;2557;51.390;7.494;2023-07-30T09:19:42;9.03;;;3.83;;
5077;SDS011;2557;51.390;7.494;2023-07-30T09:22:08;7.73;;;3.57;;
5077;SDS011;2557;51.390;7.494;2023-07-30T09:24:34;8.33;;;3.90;;
5077;SDS011;2557;51.390;7.494;2023-07-30T09:27:03;9.90;;;4.03;;
5077;SDS011;2557;51.390;7.494;2023-07-30T09:29:29;13.27;;;4.00;;
5077;SDS011;2557;51.390;7.494;2023-07-30T09:31:55;8.30;;;3.93;;
5077;SDS011;2557;51.390;7.494;2023-07-30T09:34:22;6.63;;;3.80;;
5077;SDS011;2557;51.390;7.494;2023-07-30T09:36:52;10.17;;;4.40;;
5077;SDS011;2557;51.390;7.494;2023-07-30T09:39:23;9.17;;;3.93;;
5077;SDS011;2557;51.390;7.494;2023-07-30T09:41:53;3.57;;;3.27;;
5077;SDS011;2557;51.390;7.494;2023-07-30T09:44:25;8.80;;;4.23;;
5077;SDS011;2557;51.390;7.494;2023-07-30T09:46:51;7.43;;;3.40;;
5077;SDS011;2557;51.390;7.494;2023-07-30T09:49:17;12.03;;;3.27;;
5077;SDS011;2557;51.390;7.494;2023-07-30T09:51:43;8.17;;;3.90;;
5077;SDS011;2557;51.390;7.494;2023-07-30T09:54:13;7.73;;;4.00;;
5077;SDS011;2557;51.390;7.494;2023-07-30T09:56:40;6.23;;;3.30;;
5077;SDS011;2557;51.390;7.494;2023-07-30T09:59:06;4.93;;;2.87;;
5077;SDS011;2557;51.390;7.494;2023-07-30T10:01:35;11.97;;;3.20;;
5077;SDS011;2557;51.390;7.494;2023-07-30T10:04:03;8.27;;;3.57;;
5077;SDS011;2557;51.390;7.494;2023-07-30T10:06:32;12.73;;;3.87;;
5077;SDS011;2557;51.390;7.494;2023-07-30T10:09:01;9.50;;;3.27;;
5077;SDS011;2557;51.390;7.494;2023-07-30T10:11:27;10.67;;;3.63;;
5077;SDS011;2557;51.390;7.494;2023-07-30T10:13:54;7.07;;;2.63;;
5077;SDS011;2557;51.390;7.494;2023-07-30T10:16:24;9.57;;;2.93;;
5077;SDS011;2557;51.390;7.494;2023-07-30T10:18:52;12.37;;;4.10;;
5077;SDS011;2557;51.390;7.494;2023-07-30T10:21:22;10.87;;;3.13;;
5077;SDS011;2557;51.390;7.494;2023-07-30T10:24:01;8.10;;;3.17;;
5077;SDS011;2557;51.390;7.494;2023-07-30T10:26:28;9.10;;;3.27;;
5077;SDS011;2557;51.390;7.494;2023-07-30T10:31:42;3.93;;;2.70;;
5077;SDS011;2557;51.390;7.494;2023-07-30T10:34:09;6.30;;;2.63;;
5077;SDS011;2557;51.390;7.494;2023-07-30T10:37:08;5.80;;;2.33;;
5077;SDS011;2557;51.390;7.494;2023-07-30T10:39:27;8.23;;;3.50;;
5077;SDS011;2557;51.390;7.494;2023-07-30T10:41:54;5.37;;;2.57;;
5077;SDS011;2557;51.390;7.494;2023-07-30T10:44:33;5.87;;;2.93;;
5077;SDS011;2557;51.390;7.494;2023-07-30T10:47:00;6.17;;;2.30;;
5077;SDS011;2557;51.390;7.494;2023-07-30T10:49:26;4.70;;;2.63;;
5077;SDS011;2557;51.390;7.494;2023-07-30T10:51:53;5.70;;;2.20;;
5077;SDS011;2557;51.390;7.494;2023-07-30T10:54:19;5.83;;;2.67;;
5077;SDS011;2557;51.390;7.494;2023-07-30T10:56:45;6.70;;;2.90;;
5077;SDS011;2557;51.390;7.494;2023-07-30T10:59:12;9.80;;;2.57;;
5077;SDS011;2557;51.390;7.494;2023-07-30T11:01:39;5.13;;;2.27;;
5077;SDS011;2557;51.390;7.494;2023-07-30T11:04:06;5.90;;;2.57;;
5077;SDS011;2557;51.390;7.494;2023-07-30T11:06:32;8.10;;;2.90;;
5077;SDS011;2557;51.390;7.494;2023-07-30T11:08:58;4.43;;;2.30;;
5077;SDS011;2557;51.390;7.494;2023-07-30T11:11:24;7.83;;;2.47;;
5077;SDS011;2557;51.390;7.494;2023-07-30T11:13:51;3.50;;;2.50;;
5077;SDS011;2557;51.390;7.494;2023-07-30T11:16:17;7.33;;;3.00;;
5077;SDS011;2557;51.390;7.494;2023-07-30T11:18:43;6.90;;;3.27;;
5077;SDS011;2557;51.390;7.494;2023-07-30T11:21:12;5.23;;;2.67;;
5077;SDS011;2557;51.390;7.494;2023-07-30T11:23:39;10.07;;;2.80;;
5077;SDS011;2557;51.390;7.494;2023-07-30T11:26:07;5.53;;;2.50;;
5077;SDS011;2557;51.390;7.494;2023-07-30T11:28:34;8.87;;;3.43;;
5077;SDS011;2557;51.390;7.494;2023-07-30T11:31:02;5.30;;;2.27;;
5077;SDS011;2557;51.390;7.494;2023-07-30T11:33:28;5.83;;;2.83;;
5077;SDS011;2557;51.390;7.494;2023-07-30T11:35:54;6.40;;;2.27;;
5077;SDS011;2557;51.390;7.494;2023-07-30T11:38:22;7.50;;;2.50;;
5077;SDS011;2557;51.390;7.494;2023-07-30T11:40:48;5.13;;;2.37;;
5077;SDS011;2557;51.390;7.494;2023-07-30T11:43:15;8.97;;;3.10;;
5077;SDS011;2557;51.390;7.494;2023-07-30T11:45:41;9.73;;;2.80;;
5077;SDS011;2557;51.390;7.494;2023-07-30T11:48:07;6.70;;;2.30;;
5077;SDS011;2557;51.390;7.494;2023-07-30T11:50:44;5.70;;;2.40;;
5077;SDS011;2557;51.390;7.494;2023-07-30T11:53:10;5.90;;;2.37;;
5077;SDS011;2557;51.390;7.494;2023-07-30T11:55:41;3.83;;;2.03;;
5077;SDS011;2557;51.390;7.494;2023-07-30T11:58:07;7.70;;;2.50;;
5077;SDS011;2557;51.390;7.494;2023-07-30T12:00:38;5.93;;;2.50;;
5077;SDS011;2557;51.390;7.494;2023-07-30T12:03:05;5.73;;;2.47;;
5077;SDS011;2557;51.390;7.494;2023-07-30T12:05:32;7.30;;;2.83;;
5077;SDS011;2557;51.390;7.494;2023-07-30T12:08:00;4.30;;;2.50;;
5077;SDS011;2557;51.390;7.494;2023-07-30T12:10:28;4.23;;;2.37;;
5077;SDS011;2557;51.390;7.494;2023-07-30T12:12:54;8.17;;;3.20;;
5077;SDS011;2557;51.390;7.494;2023-07-30T12:15:20;8.77;;;2.97;;
5077;SDS011;2557;51.390;7.494;2023-07-30T12:17:47;8.10;;;2.83;;
5077;SDS011;2557;51.390;7.494;2023-07-30T12:20:13;7.07;;;2.50;;
5077;SDS011;2557;51.390;7.494;2023-07-30T12:22:39;4.20;;;2.40;;
5077;SDS011;2557;51.390;7.494;2023-07-30T12:25:07;4.20;;;2.40;;
5077;SDS011;2557;51.390;7.494;2023-07-30T12:27:34;6.97;;;2.60;;
5077;SDS011;2557;51.390;7.494;2023-07-30T12:30:01;5.30;;;2.57;;
5077;SDS011;2557;51.390;7.494;2023-07-30T12:32:27;10.13;;;2.50;;
5077;SDS011;2557;51.390;7.494;2023-07-30T12:34:54;4.03;;;2.50;;
5077;SDS011;2557;51.390;7.494;2023-07-30T12:37:20;7.03;;;2.43;;
5077;SDS011;2557;51.390;7.494;2023-07-30T12:39:47;5.00;;;2.27;;
5077;SDS011;2557;51.390;7.494;2023-07-30T12:42:13;3.53;;;1.80;;
5077;SDS011;2557;51.390;7.494;2023-07-30T12:44:39;9.43;;;2.33;;
5077;SDS011;2557;51.390;7.494;2023-07-30T12:47:05;6.40;;;2.33;;
5077;SDS011;2557;51.390;7.494;2023-07-30T12:49:31;9.87;;;2.80;;
5077;SDS011;2557;51.390;7.494;2023-07-30T12:51:57;5.80;;;1.87;;
5077;SDS011;2557;51.390;7.494;2023-07-30T12:54:23;5.20;;;2.20;;
5077;SDS011;2557;51.390;7.494;2023-07-30T12:56:49;6.67;;;2.00;;
5077;SDS011;2557;51.390;7.494;2023-07-30T12:59:15;4.87;;;2.17;;
5077;SDS011;2557;51.390;7.494;2023-07-30T13:01:41;6.53;;;2.03;;
5077;SDS011;2557;51.390;7.494;2023-07-30T13:04:07;4.13;;;1.93;;
5077;SDS011;2557;51.390;7.494;2023-07-30T13:06:33;3.43;;;2.20;;
5077;SDS011;2557;51.390;7.494;2023-07-30T13:08:59;6.00;;;1.93;;
5077;SDS011;2557;51.390;7.494;2023-07-30T13:11:25;3.43;;;2.10;;
5077;SDS011;2557;51.390;7.494;2023-07-30T13:13:51;4.33;;;1.77;;
5077;SDS011;2557;51.390;7.494;2023-07-30T13:16:17;4.60;;;1.90;;
5077;SDS011;2557;51.390;7.494;2023-07-30T13:18:43;6.90;;;2.20;;
5077;SDS011;2557;51.390;7.494;2023-07-30T13:21:09;2.77;;;1.57;;
5077;SDS011;2557;51.390;7.494;2023-07-30T13:23:35;4.57;;;1.80;;
5077;SDS011;2557;51.390;7.494;2023-07-30T13:26:03;4.27;;;2.13;;
5077;SDS011;2557;51.390;7.494;2023-07-30T13:28:29;5.60;;;1.60;;
5077;SDS011;2557;51.390;7.494;2023-07-30T13:30:55;3.30;;;1.50;;
5077;SDS011;2557;51.390;7.494;2023-07-30T13:33:22;2.13;;;1.27;;
5077;SDS011;2557;51.390;7.494;2023-07-30T13:35:48;3.97;;;1.70;;
5077;SDS011;2557;51.390;7.494;2023-07-30T13:38:14;2.43;;;1.63;;
5077;SDS011;2557;51.390;7.494;2023-07-30T13:40:40;5.00;;;1.80;;
5077;SDS011;2557;51.390;7.494;2023-07-30T13:43:06;4.17;;;1.50;;
5077;SDS011;2557;51.390;7.494;2023-07-30T13:45:32;2.27;;;1.77;;
5077;SDS011;2557;51.390;7.494;2023-07-30T13:47:58;6.27;;;1.57;;
5077;SDS011;2557;51.390;7.494;2023-07-30T13:50:24;4.33;;;2.13;;
5077;SDS011;2557;51.390;7.494;2023-07-30T13:52:50;3.53;;;1.83;;
5077;SDS011;2557;51.390;7.494;2023-07-30T13:55:16;5.93;;;2.37;;
5077;SDS011;2557;51.390;7.494;2023-07-30T13:57:42;2.67;;;1.50;;
5077;SDS011;2557;51.390;7.494;2023-07-30T14:00:08;3.00;;;1.77;;
5077;SDS011;2557;51.390;7.494;2023-07-30T14:02:35;3.23;;;1.70;;
5077;SDS011;2557;51.390;7.494;2023-07-30T14:05:01;2.57;;;1.70;;
5077;SDS011;2557;51.390;7.494;2023-07-30T14:07:27;2.13;;;1.90;;
5077;SDS011;2557;51.390;7.494;2023-07-30T14:09:54;2.60;;;1.60;;
5077;SDS011;2557;51.390;7.494;2023-07-30T14:12:20;2.27;;;1.70;;
5077;SDS011;2557;51.390;7.494;2023-07-30T14:14:46;1.70;;;1.47;;
5077;SDS011;2557;51.390;7.494;2023-07-30T14:17:12;4.33;;;1.70;;
5077;SDS011;2557;51.390;7.494;2023-07-30T14:19:38;2.40;;;1.73;;
5077;SDS011;2557;51.390;7.494;2023-07-30T14:22:04;4.77;;;2.20;;
5077;SDS011;2557;51.390;7.494;2023-07-30T14:24:30;3.70;;;1.80;;
5077;SDS011;2557;51.390;7.494;2023-07-30T14:26:56;4.90;;;2.50;;
5077;SDS011;2557;51.390;7.494;2023-07-30T14:29:22;5.33;;;1.90;;
5077;SDS011;2557;51.390;7.494;2023-07-30T14:31:48;4.90;;;2.03;;
5077;SDS011;2557;51.390;7.494;2023-07-30T14:34:14;5.43;;;2.10;;
5077;SDS011;2557;51.390;7.494;2023-07-30T14:36:40;7.20;;;2.30;;
5077;SDS011;2557;51.390;7.494;2023-07-30T14:39:06;3.10;;;1.80;;
5077;SDS011;2557;51.390;7.494;2023-07-30T14:41:32;4.37;;;2.50;;
5077;SDS011;2557;51.390;7.494;2023-07-30T14:43:59;5.13;;;1.83;;
5077;SDS011;2557;51.390;7.494;2023-07-30T14:46:25;6.30;;;2.20;;
5077;SDS011;2557;51.390;7.494;2023-07-30T14:48:51;7.80;;;2.60;;
5077;SDS011;2557;51.390;7.494;2023-07-30T14:51:18;7.43;;;2.30;;
5077;SDS011;2557;51.390;7.494;2023-07-30T14:53:44;5.67;;;2.00;;
5077;SDS011;2557;51.390;7.494;2023-07-30T14:56:10;4.50;;;3.00;;
5077;SDS011;2557;51.390;7.494;2023-07-30T14:58:36;6.67;;;2.30;;
5077;SDS011;2557;51.390;7.494;2023-07-30T15:01:02;4.70;;;2.90;;
5077;SDS011;2557;51.390;7.494;2023-07-30T15:03:28;4.40;;;2.40;;
5077;SDS011;2557;51.390;7.494;2023-07-30T15:05:54;5.33;;;2.80;;
5077;SDS011;2557;51.390;7.494;2023-07-30T15:08:20;6.33;;;3.30;;
5077;SDS011;2557;51.390;7.494;2023-07-30T15:10:46;2.73;;;2.53;;
5077;SDS011;2557;51.390;7.494;2023-07-30T15:13:12;4.90;;;3.00;;
5077;SDS011;2557;51.390;7.494;2023-07-30T15:15:38;5.17;;;2.30;;